createdAt,value
2022-10-04T00:01:47.787Z,9.27
2022-10-04T00:06:57.443Z,7.82
2022-10-04T00:12:03.983Z,6.13
2022-10-04T00:17:11.815Z,7.07
2022-10-04T00:22:20.103Z,6.28
2022-10-04T00:27:27.347Z,7.72
2022-10-04T00:32:32.029Z,7.28
2022-10-04T00:37:57.171Z,5.82
2022-10-04T00:43:05.207Z,7.32
2022-10-04T00:48:32.693Z,7.55
2022-10-04T00:53:46.676Z,6.90
2022-10-04T00:59:13.804Z,7.95
2022-10-04T01:09:28.828Z,7.65
2022-10-04T01:14:44.869Z,8.73
2022-10-04T01:19:53.694Z,9.65
2022-10-04T01:24:58.576Z,8.52
2022-10-04T01:30:02.427Z,8.98
2022-10-04T01:35:06.035Z,10.75
2022-10-04T01:40:11.408Z,9.68
2022-10-04T01:45:20.022Z,8.32
2022-10-04T01:50:29.215Z,8.23
2022-10-04T01:55:36.703Z,9.00
2022-10-04T02:00:45.580Z,9.15
2022-10-04T02:05:54.213Z,8.63
2022-10-04T02:11:00.603Z,7.72
2022-10-04T02:16:05.520Z,10.27
2022-10-04T02:21:08.682Z,9.20
2022-10-04T02:26:13.171Z,8.95
2022-10-04T02:31:39.303Z,8.60
2022-10-04T02:36:42.832Z,9.98
2022-10-04T02:41:51.909Z,9.20
2022-10-04T02:47:05.763Z,8.43
2022-10-04T02:52:12.051Z,9.45
2022-10-04T02:57:19.231Z,9.13
2022-10-04T03:02:29.566Z,11.38
2022-10-04T03:07:34.513Z,11.23
2022-10-04T03:12:38.944Z,11.07
2022-10-04T03:17:43.202Z,13.77
2022-10-04T03:22:47.413Z,10.73
2022-10-04T03:27:53.501Z,12.57
2022-10-04T03:32:56.414Z,10.23
2022-10-04T03:38:03.078Z,9.60
2022-10-04T03:43:07.783Z,9.63
2022-10-04T03:48:16.402Z,11.35
2022-10-04T03:53:29.073Z,10.00
2022-10-04T03:58:38.746Z,12.60
2022-10-04T04:03:52.276Z,9.60
2022-10-04T04:08:56.445Z,9.05
2022-10-04T04:14:07.372Z,8.30
2022-10-04T04:19:14.296Z,8.15
2022-10-04T04:24:25.176Z,7.63
2022-10-04T04:29:34.656Z,7.93
2022-10-04T04:34:52.931Z,9.98
2022-10-04T04:39:56.415Z,9.43
2022-10-04T04:45:04.043Z,9.10
2022-10-04T04:50:12.177Z,9.90
2022-10-04T04:55:20.137Z,9.80
2022-10-04T05:00:29.347Z,9.10
2022-10-04T05:05:34.296Z,8.32
2022-10-04T05:10:37.420Z,8.85
2022-10-04T05:15:43.430Z,11.43
2022-10-04T05:20:50.727Z,10.85
2022-10-04T05:31:13.996Z,11.77
2022-10-04T05:36:58.448Z,9.98
2022-10-04T05:42:08.467Z,9.68
2022-10-04T05:47:15.253Z,9.25
2022-10-04T05:52:30.453Z,8.55
2022-10-04T05:57:45.158Z,9.30
2022-10-04T06:03:18.237Z,9.07
2022-10-04T06:08:33.260Z,9.70
2022-10-04T06:14:09.769Z,10.10
2022-10-04T06:19:32.007Z,8.93
2022-10-04T06:24:38.641Z,9.10
2022-10-04T06:29:47.283Z,7.47
2022-10-04T06:35:15.887Z,7.63
2022-10-04T06:40:37.970Z,7.85
2022-10-04T06:46:00.467Z,9.98
2022-10-04T06:51:18.670Z,9.15
2022-10-04T06:56:39.022Z,8.57
2022-10-04T07:01:51.316Z,8.70
2022-10-04T07:07:22.551Z,8.98
2022-10-04T07:12:26.063Z,8.80
2022-10-04T07:17:33.750Z,9.70
2022-10-04T07:22:46.220Z,9.18
2022-10-04T07:28:14.777Z,9.05
2022-10-04T07:33:22.034Z,9.07
2022-10-04T07:43:34.083Z,7.60
2022-10-04T07:48:41.410Z,9.38
2022-10-04T07:53:52.956Z,9.27
2022-10-04T07:59:07.767Z,7.68
2022-10-04T08:04:28.926Z,8.57
2022-10-04T08:09:47.339Z,7.43
2022-10-04T08:14:56.376Z,7.82
2022-10-04T08:20:10.401Z,7.47
2022-10-04T08:25:23.373Z,8.02
2022-10-04T08:30:26.445Z,7.97
2022-10-04T08:35:37.261Z,9.60
2022-10-04T08:41:27.467Z,10.63
2022-10-04T08:47:07.684Z,14.35
2022-10-04T08:52:52.074Z,11.13
2022-10-04T08:58:14.358Z,11.05
2022-10-04T09:04:02.111Z,10.70
2022-10-04T09:09:40.712Z,10.75
2022-10-04T09:15:18.710Z,13.30
2022-10-04T09:20:39.596Z,10.32
2022-10-04T09:25:54.243Z,14.07
2022-10-04T09:31:20.341Z,14.63
2022-10-04T09:36:43.708Z,12.27
2022-10-04T09:42:11.223Z,11.52
2022-10-04T09:47:37.618Z,10.82
2022-10-04T09:52:48.330Z,12.10
2022-10-04T09:58:11.790Z,12.05
2022-10-04T10:03:41.850Z,10.48
2022-10-04T10:08:57.250Z,10.50
2022-10-04T10:14:39.947Z,11.23
2022-10-04T10:20:22.995Z,10.55
2022-10-04T10:25:47.812Z,8.85
2022-10-04T10:31:08.582Z,9.45
2022-10-04T10:36:43.828Z,7.10
2022-10-04T10:42:06.432Z,8.25
2022-10-04T10:47:34.247Z,7.80
2022-10-04T10:52:59.561Z,7.38
2022-10-04T10:58:51.815Z,6.10
2022-10-04T11:04:28.526Z,15.27
2022-10-04T11:09:35.449Z,4.93
2022-10-04T11:20:34.066Z,4.85
2022-10-04T11:26:14.169Z,4.47
2022-10-04T11:32:05.549Z,4.95
2022-10-04T11:37:17.104Z,4.97
2022-10-04T11:42:37.855Z,5.03
2022-10-04T11:47:59.464Z,4.18
2022-10-04T11:53:27.175Z,3.88
2022-10-04T11:58:42.526Z,3.90
2022-10-04T12:04:28.095Z,2.88
2022-10-04T12:09:42.230Z,3.30
2022-10-04T12:14:57.805Z,3.92
2022-10-04T12:20:54.142Z,3.33
2022-10-04T12:26:33.572Z,3.60
2022-10-04T12:31:43.017Z,3.15
2022-10-04T12:37:14.215Z,2.72
2022-10-04T12:42:32.414Z,3.33
2022-10-04T12:47:53.834Z,3.35
2022-10-04T12:53:07.740Z,2.85
2022-10-04T12:58:22.788Z,3.13
2022-10-04T13:03:33.575Z,3.75
2022-10-04T13:08:52.613Z,3.17
2022-10-04T13:14:11.607Z,3.47
2022-10-04T13:19:23.443Z,3.58
2022-10-04T13:24:32.199Z,3.33
2022-10-04T13:29:43.618Z,3.42
2022-10-04T13:34:54.371Z,4.15
2022-10-04T13:45:42.492Z,3.25
2022-10-04T13:51:00.098Z,2.97
2022-10-04T13:56:32.433Z,3.58
2022-10-04T14:02:13.864Z,2.92
2022-10-04T14:07:34.569Z,4.47
2022-10-04T14:13:06.099Z,3.28
2022-10-04T14:18:58.332Z,3.20
2022-10-04T14:24:34.961Z,2.67
2022-10-04T14:29:50.581Z,3.03
2022-10-04T14:35:02.078Z,2.80
2022-10-04T14:40:32.706Z,3.28
2022-10-04T14:45:45.166Z,2.60
2022-10-04T14:51:36.967Z,4.88
2022-10-04T14:56:59.133Z,2.78
2022-10-04T15:02:23.964Z,3.90
2022-10-04T15:07:32.943Z,5.25
2022-10-04T15:13:16.637Z,3.22
2022-10-04T15:18:36.514Z,3.72
2022-10-04T15:23:43.138Z,3.05
2022-10-04T15:29:07.323Z,3.53
2022-10-04T15:34:31.190Z,3.40
2022-10-04T15:39:58.954Z,3.38
2022-10-04T15:45:24.034Z,2.65
2022-10-04T15:50:32.182Z,2.65
2022-10-04T15:56:00.909Z,3.10
2022-10-04T16:01:38.889Z,3.45
2022-10-04T16:06:49.025Z,2.40
2022-10-04T16:12:03.592Z,2.83
2022-10-04T16:17:28.732Z,3.40
2022-10-04T16:22:33.007Z,3.38
2022-10-04T16:27:47.030Z,3.30
2022-10-04T16:33:06.598Z,3.75
2022-10-04T16:38:24.435Z,3.92
2022-10-04T16:43:30.098Z,3.45
2022-10-04T16:48:52.057Z,4.72
2022-10-04T16:54:04.579Z,5.32
2022-10-04T16:59:12.355Z,6.20
2022-10-04T17:04:33.518Z,5.65
2022-10-04T17:09:47.209Z,6.20
2022-10-04T17:15:21.426Z,10.40
2022-10-04T17:20:40.217Z,28.65
2022-10-04T17:25:51.791Z,14.20
2022-10-04T17:31:02.227Z,8.85
2022-10-04T17:36:20.799Z,10.52
2022-10-04T17:41:33.509Z,13.75
2022-10-04T17:46:44.370Z,13.80
2022-10-04T17:52:08.666Z,17.45
2022-10-04T17:57:22.818Z,21.65
2022-10-04T18:02:34.739Z,14.40
2022-10-04T18:07:45.150Z,11.63
2022-10-04T18:12:52.938Z,12.32
2022-10-04T18:18:12.944Z,12.90
2022-10-04T18:23:20.864Z,12.73
2022-10-04T18:28:24.165Z,13.32
2022-10-04T18:33:46.302Z,14.27
2022-10-04T18:39:17.533Z,8.45
2022-10-04T18:44:23.276Z,8.75
2022-10-04T18:49:30.219Z,7.68
2022-10-04T18:54:42.236Z,8.75
2022-10-04T19:00:12.765Z,12.82
2022-10-04T19:05:23.722Z,12.70
2022-10-04T19:10:33.971Z,13.15
2022-10-04T19:15:45.570Z,12.68
2022-10-04T19:20:55.647Z,11.63
2022-10-04T19:31:38.390Z,16.33
2022-10-04T19:36:51.467Z,18.70
2022-10-04T19:42:00.357Z,15.48
2022-10-04T19:47:10.655Z,15.70
2022-10-04T19:52:22.937Z,13.82
2022-10-04T19:57:36.478Z,11.38
2022-10-04T20:02:42.620Z,11.10
2022-10-04T20:07:54.635Z,13.40
2022-10-04T20:13:24.095Z,15.35
2022-10-04T20:19:10.665Z,17.38
2022-10-04T20:24:17.716Z,17.33
2022-10-04T20:30:06.287Z,12.00
2022-10-04T20:35:14.013Z,11.77
2022-10-04T20:40:44.338Z,11.32
2022-10-04T20:45:48.039Z,11.10
2022-10-04T20:50:53.449Z,13.23
2022-10-04T20:56:11.029Z,11.75
2022-10-04T21:01:42.373Z,10.00
2022-10-04T21:06:56.870Z,10.13
2022-10-04T21:12:02.174Z,10.50
2022-10-04T21:17:06.854Z,11.63
2022-10-04T21:22:11.898Z,10.55
2022-10-04T21:27:28.457Z,12.85
2022-10-04T21:32:35.639Z,13.07
2022-10-04T21:37:39.981Z,12.48
2022-10-04T21:42:42.721Z,11.85
2022-10-04T21:47:45.492Z,13.00
2022-10-04T21:52:49.652Z,12.40
2022-10-04T21:57:52.491Z,13.40
2022-10-04T22:02:55.231Z,13.38
2022-10-04T22:07:59.587Z,12.02
2022-10-04T22:13:02.418Z,11.57
2022-10-04T22:18:05.373Z,12.93
2022-10-04T22:23:17.632Z,11.45
2022-10-04T22:28:26.691Z,11.77
2022-10-04T22:33:33.926Z,11.55
2022-10-04T22:38:43.214Z,11.85
2022-10-04T22:43:46.123Z,10.00
2022-10-04T22:48:50.253Z,10.63
2022-10-04T22:53:54.372Z,10.90
2022-10-04T22:58:59.313Z,10.60
2022-10-04T23:04:02.165Z,11.65
2022-10-04T23:09:06.235Z,10.52
2022-10-04T23:14:09.029Z,10.75
2022-10-04T23:19:14.714Z,10.95
2022-10-04T23:24:20.802Z,14.38
2022-10-04T23:29:25.981Z,13.40
2022-10-04T23:34:31.800Z,12.77
2022-10-04T23:39:37.284Z,13.93
2022-10-04T23:44:40.047Z,12.43
2022-10-04T23:49:46.186Z,10.82
2022-10-04T23:54:52.687Z,10.65
2022-10-04T23:59:56.312Z,10.77
